createdAt,value
2022-12-27T00:00:02.783Z,93.96
2022-12-27T00:01:03.164Z,94.06
2022-12-27T00:02:02.296Z,93.85
2022-12-27T00:03:02.171Z,93.75
2022-12-27T00:04:01.719Z,93.85
2022-12-27T00:05:01.959Z,93.96
2022-12-27T00:06:01.824Z,94.48
2022-12-27T00:07:02.295Z,94.48
2022-12-27T00:08:02.490Z,94.27
2022-12-27T00:09:02.815Z,94.48
2022-12-27T00:10:02.559Z,94.53
2022-12-27T00:11:02.639Z,95.04
2022-12-27T00:12:02.561Z,95.15
2022-12-27T00:13:02.447Z,95.15
2022-12-27T00:14:02.713Z,95.00
2022-12-27T00:15:02.324Z,95.15
2022-12-27T00:16:02.555Z,95.15
2022-12-27T00:17:01.869Z,95.15
2022-12-27T00:18:02.218Z,95.36
2022-12-27T00:19:01.986Z,95.46
2022-12-27T00:20:10.363Z,95.46
2022-12-27T00:21:02.269Z,95.77
2022-12-27T00:22:02.071Z,95.31
2022-12-27T00:23:02.121Z,95.15
2022-12-27T00:24:02.005Z,95.46
2022-12-27T00:25:02.291Z,95.56
2022-12-27T00:26:02.049Z,95.77
2022-12-27T00:27:02.567Z,95.67
2022-12-27T00:28:02.984Z,95.56
2022-12-27T00:29:02.866Z,95.56
2022-12-27T00:30:02.756Z,95.46
2022-12-27T00:31:03.029Z,95.67
2022-12-27T00:32:01.840Z,95.77
2022-12-27T00:33:01.461Z,95.56
2022-12-27T00:34:01.909Z,95.77
2022-12-27T00:35:01.693Z,96.08
2022-12-27T00:36:02.021Z,96.19
2022-12-27T00:37:02.068Z,95.98
2022-12-27T00:38:02.066Z,95.15
2022-12-27T00:39:02.369Z,95.46
2022-12-27T00:40:02.611Z,95.46
2022-12-27T00:41:02.081Z,95.36
2022-12-27T00:42:01.786Z,95.15
2022-12-27T00:43:01.497Z,95.25
2022-12-27T00:44:01.782Z,95.36
2022-12-27T00:45:01.409Z,95.25
2022-12-27T00:46:01.945Z,94.53
2022-12-27T00:47:02.404Z,95.15
2022-12-27T00:48:02.379Z,95.25
2022-12-27T00:49:02.100Z,95.41
2022-12-27T00:50:02.658Z,95.10
2022-12-27T00:51:02.561Z,95.00
2022-12-27T00:52:02.380Z,95.31
2022-12-27T00:53:02.437Z,94.58
2022-12-27T00:54:02.217Z,94.06
2022-12-27T00:55:02.593Z,94.27
2022-12-27T00:56:02.305Z,94.68
2022-12-27T00:57:01.730Z,94.79
2022-12-27T00:58:02.092Z,94.79
2022-12-27T00:59:01.956Z,94.79
2022-12-27T01:00:07.927Z,94.79
2022-12-27T01:01:01.703Z,95.10
2022-12-27T01:02:02.756Z,95.04
2022-12-27T01:03:02.832Z,94.63
2022-12-27T01:04:02.641Z,94.17
2022-12-27T01:05:03.024Z,94.42
2022-12-27T01:06:02.675Z,93.59
2022-12-27T01:07:02.898Z,94.42
2022-12-27T01:08:03.153Z,94.42
2022-12-27T01:09:03.003Z,94.73
2022-12-27T01:10:02.981Z,94.94
2022-12-27T01:11:03.277Z,95.36
2022-12-27T01:12:02.926Z,95.36
2022-12-27T01:13:02.593Z,95.46
2022-12-27T01:14:02.902Z,95.56
2022-12-27T01:15:02.922Z,95.56
2022-12-27T01:16:02.563Z,95.46
2022-12-27T01:17:02.646Z,95.77
2022-12-27T01:18:03.055Z,95.67
2022-12-27T01:19:02.853Z,95.46
2022-12-27T01:20:02.742Z,95.87
2022-12-27T01:21:03.278Z,96.08
2022-12-27T01:22:03.241Z,96.29
2022-12-27T01:23:03.482Z,96.19
2022-12-27T01:24:03.296Z,95.98
2022-12-27T01:25:03.768Z,96.08
2022-12-27T01:26:03.164Z,96.08
2022-12-27T01:27:02.828Z,96.08
2022-12-27T01:28:02.458Z,96.08
2022-12-27T01:29:02.437Z,95.98
2022-12-27T01:30:02.400Z,96.19
2022-12-27T01:31:02.886Z,96.39
2022-12-27T01:32:03.452Z,96.29
2022-12-27T01:34:03.034Z,96.29
2022-12-27T01:35:03.139Z,96.50
2022-12-27T01:36:02.973Z,96.54
2022-12-27T01:37:03.108Z,96.85
2022-12-27T01:38:03.538Z,96.95
2022-12-27T01:39:03.024Z,97.16
2022-12-27T01:40:03.473Z,96.85
2022-12-27T01:41:02.964Z,96.95
2022-12-27T01:42:03.334Z,97.06
2022-12-27T01:43:03.625Z,96.33
2022-12-27T01:44:03.224Z,96.19
2022-12-27T01:45:03.457Z,95.81
2022-12-27T01:46:03.003Z,95.92
2022-12-27T01:47:03.194Z,96.75
2022-12-27T01:48:03.436Z,96.85
2022-12-27T01:49:05.273Z,96.70
2022-12-27T01:50:03.708Z,96.91
2022-12-27T01:51:03.430Z,97.02
2022-12-27T01:52:02.770Z,96.91
2022-12-27T01:53:02.780Z,97.02
2022-12-27T01:54:02.731Z,96.91
2022-12-27T01:55:03.215Z,96.81
2022-12-27T01:56:03.320Z,96.81
2022-12-27T01:57:02.680Z,96.91
2022-12-27T01:58:02.432Z,97.02
2022-12-27T01:59:02.176Z,96.91
2022-12-27T02:00:02.534Z,97.02
2022-12-27T02:01:02.722Z,97.02
2022-12-27T02:02:03.117Z,97.02
2022-12-27T02:03:02.831Z,96.81
2022-12-27T02:04:02.471Z,96.50
2022-12-27T02:05:02.605Z,95.98
2022-12-27T02:06:03.152Z,96.08
2022-12-27T02:07:03.345Z,96.60
2022-12-27T02:08:03.437Z,96.70
2022-12-27T02:09:03.195Z,96.50
2022-12-27T02:10:03.243Z,96.29
2022-12-27T02:11:03.007Z,96.60
2022-12-27T02:12:02.354Z,96.70
2022-12-27T02:13:02.363Z,96.81
2022-12-27T02:14:02.739Z,96.91
2022-12-27T02:15:02.374Z,96.50
2022-12-27T02:16:02.834Z,96.70
2022-12-27T02:17:02.587Z,97.02
2022-12-27T02:18:02.894Z,96.86
2022-12-27T02:19:02.652Z,96.86
2022-12-27T02:20:03.020Z,96.76
2022-12-27T02:21:03.109Z,96.55
2022-12-27T02:22:02.813Z,96.76
2022-12-27T02:23:03.398Z,96.76
2022-12-27T02:24:03.205Z,96.76
2022-12-27T02:25:03.179Z,96.66
2022-12-27T02:26:03.302Z,96.55
2022-12-27T02:27:02.357Z,96.76
2022-12-27T02:28:02.495Z,96.66
2022-12-27T02:29:02.295Z,96.55
2022-12-27T02:30:02.648Z,96.55
2022-12-27T02:31:02.607Z,96.03
2022-12-27T02:32:02.447Z,96.60
2022-12-27T02:33:02.460Z,96.45
2022-12-27T02:34:02.863Z,96.70
2022-12-27T02:35:02.695Z,96.24
2022-12-27T02:36:02.385Z,96.14
2022-12-27T02:37:03.412Z,95.83
2022-12-27T02:38:02.845Z,95.20
2022-12-27T02:39:02.944Z,95.31
2022-12-27T02:40:03.398Z,96.03
2022-12-27T02:41:03.051Z,96.55
2022-12-27T02:42:03.294Z,96.45
2022-12-27T02:43:03.515Z,96.34
2022-12-27T02:44:03.189Z,96.55
2022-12-27T02:45:03.533Z,95.93
2022-12-27T02:46:03.087Z,95.62
2022-12-27T02:47:03.522Z,95.72
2022-12-27T02:48:03.671Z,95.51
2022-12-27T02:49:03.400Z,95.31
2022-12-27T02:50:03.117Z,95.41
2022-12-27T02:51:03.449Z,95.31
2022-12-27T02:52:02.924Z,95.46
2022-12-27T02:53:02.647Z,95.98
2022-12-27T02:54:02.851Z,96.50
2022-12-27T02:55:02.679Z,97.02
2022-12-27T02:56:02.471Z,97.43
2022-12-27T02:57:02.770Z,97.64
2022-12-27T02:58:02.797Z,97.22
2022-12-27T02:59:02.822Z,96.91
2022-12-27T03:00:02.613Z,97.22
2022-12-27T03:01:03.001Z,97.43
2022-12-27T03:02:03.442Z,96.70
2022-12-27T03:03:02.916Z,96.70
2022-12-27T03:04:02.872Z,96.81
2022-12-27T03:05:03.208Z,96.91
2022-12-27T03:06:03.376Z,97.22
2022-12-27T03:07:03.408Z,97.53
2022-12-27T03:08:03.340Z,97.22
2022-12-27T03:09:03.363Z,96.39
2022-12-27T03:10:02.847Z,96.39
2022-12-27T03:11:02.946Z,96.19
2022-12-27T03:12:02.677Z,96.08
2022-12-27T03:13:02.712Z,96.08
2022-12-27T03:14:02.480Z,96.95
2022-12-27T03:15:02.518Z,97.78
2022-12-27T03:16:02.999Z,98.10
2022-12-27T03:17:02.634Z,98.10
2022-12-27T03:18:02.950Z,97.78
2022-12-27T03:19:02.663Z,97.37
2022-12-27T03:20:03.252Z,97.22
2022-12-27T03:21:02.859Z,97.16
2022-12-27T03:22:02.353Z,97.47
2022-12-27T03:23:02.292Z,97.43
2022-12-27T03:24:02.904Z,97.68
2022-12-27T03:25:02.286Z,98.10
2022-12-27T03:26:02.868Z,98.20
2022-12-27T03:27:02.918Z,98.05
2022-12-27T03:28:02.807Z,97.78
2022-12-27T03:29:02.382Z,98.10
2022-12-27T03:30:02.768Z,98.10
2022-12-27T03:31:02.564Z,98.30
2022-12-27T03:32:02.920Z,98.05
2022-12-27T03:33:03.521Z,98.41
2022-12-27T03:34:03.549Z,98.51
2022-12-27T03:35:03.221Z,98.51
2022-12-27T03:36:03.225Z,98.36
2022-12-27T03:37:02.460Z,98.26
2022-12-27T03:38:02.886Z,98.41
2022-12-27T03:39:02.443Z,98.36
2022-12-27T03:40:02.866Z,98.16
2022-12-27T03:41:02.353Z,97.95
2022-12-27T03:42:02.637Z,97.85
2022-12-27T03:43:02.677Z,97.53
2022-12-27T03:44:02.994Z,97.43
2022-12-27T03:45:02.768Z,97.53
2022-12-27T03:46:03.035Z,97.43
2022-12-27T03:47:02.883Z,97.43
2022-12-27T03:48:02.674Z,97.22
2022-12-27T03:49:03.170Z,97.33
2022-12-27T03:50:02.592Z,97.43
2022-12-27T03:51:02.628Z,97.85
2022-12-27T03:52:02.361Z,97.85
2022-12-27T03:53:02.435Z,97.85
2022-12-27T03:54:02.245Z,97.74
2022-12-27T03:55:02.749Z,97.43
2022-12-27T03:56:02.509Z,97.53
2022-12-27T03:57:02.819Z,97.64
2022-12-27T03:58:02.917Z,97.68
2022-12-27T03:59:03.356Z,98.10
2022-12-27T04:00:03.036Z,97.99
2022-12-27T04:01:02.852Z,98.10
2022-12-27T04:02:02.595Z,97.89
2022-12-27T04:03:02.480Z,97.68
2022-12-27T04:04:02.597Z,97.37
2022-12-27T04:05:02.395Z,97.16
2022-12-27T04:06:02.781Z,96.85
2022-12-27T04:07:02.174Z,96.54
2022-12-27T04:08:02.489Z,96.33
2022-12-27T04:09:02.342Z,96.54
2022-12-27T04:10:02.093Z,96.54
2022-12-27T04:11:02.347Z,96.54
2022-12-27T04:12:03.056Z,97.06
2022-12-27T04:13:02.689Z,97.37
2022-12-27T04:14:02.609Z,97.37
2022-12-27T04:15:03.298Z,97.47
2022-12-27T04:16:02.591Z,97.58
2022-12-27T04:17:03.224Z,96.64
2022-12-27T04:18:02.935Z,96.95
2022-12-27T04:19:02.688Z,96.44
2022-12-27T04:20:02.770Z,96.33
2022-12-27T04:21:02.912Z,96.33
2022-12-27T04:22:02.465Z,96.58
2022-12-27T04:23:02.231Z,96.69
2022-12-27T04:24:02.232Z,96.89
2022-12-27T04:25:02.284Z,97.52
2022-12-27T04:26:02.290Z,97.83
2022-12-27T04:27:03.136Z,98.24
2022-12-27T04:28:03.221Z,98.91
2022-12-27T04:29:02.742Z,99.33
2022-12-27T04:30:03.119Z,99.33
2022-12-27T04:31:02.653Z,99.18
2022-12-27T04:32:02.158Z,99.33
2022-12-27T04:33:02.166Z,99.64
2022-12-27T04:34:01.716Z,99.95
2022-12-27T04:35:01.786Z,99.85
2022-12-27T04:36:06.140Z,99.64
2022-12-27T04:37:02.143Z,99.85
2022-12-27T04:38:02.120Z,99.95
2022-12-27T04:39:01.695Z,99.74
2022-12-27T04:40:01.789Z,99.95
2022-12-27T04:41:02.121Z,99.85
2022-12-27T04:42:02.393Z,99.85
2022-12-27T04:43:02.662Z,99.85
2022-12-27T04:44:02.453Z,99.99
2022-12-27T04:45:02.234Z,99.99
2022-12-27T04:46:02.558Z,99.99
2022-12-27T04:47:02.673Z,99.95
2022-12-27T04:48:02.336Z,99.74
2022-12-27T04:49:02.686Z,99.85
2022-12-27T04:50:02.484Z,99.99
2022-12-27T04:51:03.239Z,99.99
2022-12-27T04:52:02.866Z,99.99
2022-12-27T04:53:02.935Z,99.99
2022-12-27T04:54:02.813Z,99.99
2022-12-27T04:55:03.106Z,99.99
2022-12-27T04:56:02.886Z,99.99
2022-12-27T04:57:02.197Z,99.99
2022-12-27T04:58:01.893Z,99.99
2022-12-27T04:59:02.237Z,99.99
2022-12-27T05:00:02.009Z,99.99
2022-12-27T05:01:01.799Z,99.99
2022-12-27T05:02:02.875Z,99.99
2022-12-27T05:03:02.842Z,99.99
2022-12-27T05:04:02.605Z,99.99
2022-12-27T05:05:02.314Z,99.99
2022-12-27T05:06:02.733Z,99.99
2022-12-27T05:07:02.633Z,99.99
2022-12-27T05:08:02.973Z,99.99
2022-12-27T05:09:03.063Z,99.99
2022-12-27T05:10:02.817Z,99.99
2022-12-27T05:11:02.815Z,99.99
2022-12-27T05:12:02.246Z,99.99
2022-12-27T05:13:02.624Z,99.99
2022-12-27T05:14:02.442Z,99.99
2022-12-27T05:15:02.912Z,99.99
2022-12-27T05:16:02.670Z,99.99
2022-12-27T05:17:03.002Z,99.99
2022-12-27T05:18:02.759Z,99.99
2022-12-27T05:19:03.062Z,99.99
2022-12-27T05:20:03.017Z,99.99
2022-12-27T05:21:02.543Z,99.99
2022-12-27T05:22:01.856Z,99.99
2022-12-27T05:23:02.351Z,99.99
2022-12-27T05:24:05.357Z,99.99
2022-12-27T05:25:02.163Z,99.99
2022-12-27T05:26:02.127Z,99.99
2022-12-27T05:27:02.385Z,99.99
2022-12-27T05:28:02.780Z,99.99
2022-12-27T05:29:02.516Z,99.99
2022-12-27T05:30:02.761Z,99.99
2022-12-27T05:31:02.437Z,99.99
2022-12-27T05:32:06.783Z,99.99
2022-12-27T05:33:02.554Z,99.88
2022-12-27T05:34:02.999Z,99.88
2022-12-27T05:35:02.942Z,99.73
2022-12-27T05:36:02.739Z,99.52
2022-12-27T05:37:03.100Z,99.52
2022-12-27T05:38:02.793Z,99.32
2022-12-27T05:39:02.667Z,99.43
2022-12-27T05:40:02.918Z,99.11
2022-12-27T05:41:02.885Z,99.01
2022-12-27T05:42:02.321Z,98.75
2022-12-27T05:43:02.285Z,98.44
2022-12-27T05:44:07.076Z,98.24
2022-12-27T05:45:02.149Z,98.34
2022-12-27T05:46:02.554Z,98.03
2022-12-27T05:47:02.329Z,97.93
2022-12-27T05:48:02.081Z,97.93
2022-12-27T05:49:01.701Z,97.83
2022-12-27T05:50:02.085Z,97.83
2022-12-27T05:51:01.748Z,97.72
2022-12-27T05:52:02.209Z,97.52
2022-12-27T05:53:02.517Z,97.52
2022-12-27T05:54:02.732Z,97.31
2022-12-27T05:55:02.439Z,97.20
2022-12-27T05:56:02.790Z,97.00
2022-12-27T05:57:02.845Z,97.06
2022-12-27T05:58:02.251Z,97.10
2022-12-27T05:59:02.713Z,96.85
2022-12-27T06:00:02.593Z,96.75
2022-12-27T06:01:02.711Z,96.64
2022-12-27T06:02:02.188Z,96.75
2022-12-27T06:03:02.397Z,96.54
2022-12-27T06:04:02.377Z,96.23
2022-12-27T06:05:02.017Z,96.23
2022-12-27T06:06:02.176Z,96.23
2022-12-27T06:07:02.505Z,96.23
2022-12-27T06:08:02.961Z,96.23
2022-12-27T06:09:02.862Z,96.23
2022-12-27T06:10:02.753Z,96.33
2022-12-27T06:11:02.997Z,96.02
2022-12-27T06:12:02.048Z,96.12
2022-12-27T06:13:02.408Z,95.92
2022-12-27T06:14:02.269Z,95.71
2022-12-27T06:15:02.434Z,95.81
2022-12-27T06:16:02.250Z,95.50
2022-12-27T06:17:02.042Z,95.40
2022-12-27T06:18:02.036Z,95.09
2022-12-27T06:19:02.497Z,94.98
2022-12-27T06:20:02.306Z,94.98
2022-12-27T06:21:02.027Z,95.24
2022-12-27T06:22:02.857Z,95.65
2022-12-27T06:23:02.798Z,95.86
2022-12-27T06:24:02.627Z,95.96
2022-12-27T06:25:02.988Z,96.06
2022-12-27T06:26:02.830Z,95.96
2022-12-27T06:27:02.352Z,96.06
2022-12-27T06:28:02.189Z,96.27
2022-12-27T06:29:02.421Z,95.96
2022-12-27T06:30:02.408Z,96.17
2022-12-27T06:31:02.102Z,95.96
2022-12-27T06:32:02.530Z,95.86
2022-12-27T06:33:02.340Z,95.65
2022-12-27T06:34:02.494Z,95.86
2022-12-27T06:35:02.331Z,95.65
2022-12-27T06:36:02.849Z,95.75
2022-12-27T06:37:02.048Z,95.65
2022-12-27T06:38:01.877Z,95.65
2022-12-27T06:39:02.420Z,95.86
2022-12-27T06:40:01.974Z,95.96
2022-12-27T06:41:01.875Z,95.96
2022-12-27T06:42:02.599Z,95.96
2022-12-27T06:43:02.431Z,95.75
2022-12-27T06:44:02.821Z,95.96
2022-12-27T06:45:02.518Z,95.86
2022-12-27T06:46:02.851Z,95.54
2022-12-27T06:47:02.063Z,95.75
2022-12-27T06:48:02.069Z,95.75
2022-12-27T06:49:02.036Z,95.65
2022-12-27T06:50:02.121Z,95.65
2022-12-27T06:51:02.361Z,95.65
2022-12-27T06:52:02.346Z,95.65
2022-12-27T06:53:02.121Z,95.75
2022-12-27T06:54:02.647Z,95.75
2022-12-27T06:55:02.125Z,95.65
2022-12-27T06:56:02.267Z,95.65
2022-12-27T06:57:02.498Z,95.65
2022-12-27T06:58:02.302Z,95.65
2022-12-27T06:59:02.744Z,95.44
2022-12-27T07:00:02.320Z,95.54
2022-12-27T07:01:03.277Z,95.44
2022-12-27T07:02:02.594Z,95.29
2022-12-27T07:03:02.633Z,95.19
2022-12-27T07:04:02.704Z,95.19
2022-12-27T07:05:02.517Z,95.40
2022-12-27T07:06:02.920Z,95.19
2022-12-27T07:07:03.234Z,95.19
2022-12-27T07:08:03.189Z,95.40
2022-12-27T07:09:03.361Z,95.09
2022-12-27T07:10:03.123Z,94.89
2022-12-27T07:11:03.373Z,95.09
2022-12-27T07:12:03.216Z,94.94
2022-12-27T07:13:02.586Z,94.84
2022-12-27T07:14:03.180Z,94.84
2022-12-27T07:15:02.747Z,94.63
2022-12-27T07:16:02.590Z,94.63
2022-12-27T07:17:03.025Z,94.18
2022-12-27T07:18:02.714Z,93.76
2022-12-27T07:19:03.213Z,93.76
2022-12-27T07:20:02.792Z,93.66
2022-12-27T07:21:02.879Z,93.76
2022-12-27T07:22:02.478Z,94.07
2022-12-27T07:23:02.167Z,93.76
2022-12-27T07:24:02.100Z,93.66
2022-12-27T07:25:02.572Z,93.80
2022-12-27T07:26:02.038Z,94.22
2022-12-27T07:27:02.755Z,94.63
2022-12-27T07:28:02.354Z,94.53
2022-12-27T07:29:02.336Z,94.63
2022-12-27T07:30:02.385Z,94.73
2022-12-27T07:31:02.449Z,94.43
2022-12-27T07:32:03.283Z,94.53
2022-12-27T07:33:03.423Z,94.32
2022-12-27T07:34:02.960Z,94.53
2022-12-27T07:35:03.418Z,94.84
2022-12-27T07:36:03.304Z,94.89
2022-12-27T07:37:02.534Z,95.09
2022-12-27T07:38:02.550Z,95.40
2022-12-27T07:39:02.020Z,95.29
2022-12-27T07:40:02.339Z,95.50
2022-12-27T07:41:02.103Z,95.71
2022-12-27T07:42:07.906Z,95.61
2022-12-27T07:43:02.085Z,95.61
2022-12-27T07:44:02.267Z,95.71
2022-12-27T07:45:02.124Z,95.71
2022-12-27T07:46:02.106Z,95.81
2022-12-27T07:47:02.407Z,95.92
2022-12-27T07:48:02.984Z,95.87
2022-12-27T07:49:02.144Z,95.98
2022-12-27T07:50:02.690Z,95.77
2022-12-27T07:51:02.303Z,95.77
2022-12-27T07:52:02.904Z,95.77
2022-12-27T07:53:02.800Z,95.77
2022-12-27T07:54:02.735Z,95.87
2022-12-27T07:55:02.678Z,95.77
2022-12-27T07:56:02.433Z,95.87
2022-12-27T07:57:03.386Z,95.98
2022-12-27T07:58:03.346Z,95.87
2022-12-27T07:59:03.468Z,95.62
2022-12-27T08:00:03.149Z,95.52
2022-12-27T08:01:03.490Z,95.52
2022-12-27T08:02:02.904Z,95.52
2022-12-27T08:03:02.547Z,95.62
2022-12-27T08:04:02.286Z,95.52
2022-12-27T08:05:02.132Z,95.42
2022-12-27T08:06:02.760Z,95.52
2022-12-27T08:07:02.998Z,95.31
2022-12-27T08:08:02.543Z,95.42
2022-12-27T08:09:02.740Z,95.42
2022-12-27T08:10:02.949Z,95.31
2022-12-27T08:11:05.722Z,95.21
2022-12-27T08:12:02.362Z,95.10
2022-12-27T08:13:02.271Z,95.00
2022-12-27T08:14:02.345Z,94.90
2022-12-27T08:15:02.456Z,94.96
2022-12-27T08:16:02.235Z,94.85
2022-12-27T08:17:02.704Z,94.96
2022-12-27T08:18:02.324Z,94.96
2022-12-27T08:19:08.170Z,95.06
2022-12-27T08:20:02.248Z,95.06
2022-12-27T08:21:02.267Z,94.96
2022-12-27T08:22:02.809Z,95.06
2022-12-27T08:23:02.454Z,94.85
2022-12-27T08:24:02.848Z,94.85
2022-12-27T08:25:02.625Z,94.75
2022-12-27T08:26:02.522Z,94.75
2022-12-27T08:27:01.824Z,94.75
2022-12-27T08:28:02.269Z,94.60
2022-12-27T08:29:02.111Z,94.65
2022-12-27T08:30:02.000Z,94.71
2022-12-27T08:31:01.983Z,94.71
2022-12-27T08:32:02.240Z,94.71
2022-12-27T08:33:02.279Z,94.40
2022-12-27T08:34:02.282Z,94.29
2022-12-27T08:35:25.277Z,94.19
2022-12-27T08:36:04.732Z,94.19
2022-12-27T08:37:02.193Z,94.09
2022-12-27T08:38:02.176Z,94.09
2022-12-27T08:39:02.557Z,93.88
2022-12-27T08:40:03.153Z,93.94
2022-12-27T08:41:02.541Z,94.15
2022-12-27T08:42:02.487Z,93.94
2022-12-27T08:43:02.994Z,93.53
2022-12-27T08:44:02.529Z,93.53
2022-12-27T08:45:02.647Z,93.43
2022-12-27T08:46:02.818Z,93.53
2022-12-27T08:47:02.090Z,93.43
2022-12-27T08:48:02.575Z,93.53
2022-12-27T08:49:02.479Z,93.53
2022-12-27T08:50:02.632Z,93.63
2022-12-27T08:51:06.005Z,93.63
2022-12-27T08:52:02.895Z,93.84
2022-12-27T08:53:03.196Z,93.73
2022-12-27T08:54:03.220Z,93.53
2022-12-27T08:55:02.987Z,93.38
2022-12-27T08:56:02.880Z,93.84
2022-12-27T08:57:02.319Z,93.69
2022-12-27T08:58:02.306Z,93.69
2022-12-27T08:59:02.599Z,93.59
2022-12-27T09:00:02.394Z,93.28
2022-12-27T09:01:02.680Z,92.97
2022-12-27T09:02:02.688Z,93.07
2022-12-27T09:03:03.109Z,92.66
2022-12-27T09:04:02.949Z,92.86
2022-12-27T09:05:03.101Z,92.66
2022-12-27T09:06:02.751Z,92.97
2022-12-27T09:07:02.984Z,92.76
2022-12-27T09:08:03.025Z,92.72
2022-12-27T09:09:03.012Z,92.93
2022-12-27T09:10:03.529Z,92.72
2022-12-27T09:11:02.909Z,92.61
2022-12-27T09:12:08.654Z,92.21
2022-12-27T09:13:02.894Z,92.51
2022-12-27T09:14:03.357Z,92.61
2022-12-27T09:15:03.101Z,92.72
2022-12-27T09:16:02.955Z,92.61
2022-12-27T09:17:02.258Z,92.72
2022-12-27T09:18:02.087Z,92.93
2022-12-27T09:19:02.279Z,91.96
2022-12-27T09:20:02.403Z,92.16
2022-12-27T09:21:02.157Z,92.47
2022-12-27T09:22:02.689Z,92.37
2022-12-27T09:23:02.898Z,92.06
2022-12-27T09:24:03.049Z,91.64
2022-12-27T09:25:03.141Z,91.64
2022-12-27T09:26:02.765Z,91.64
2022-12-27T09:27:03.119Z,91.54
2022-12-27T09:28:02.994Z,91.85
2022-12-27T09:29:03.487Z,91.64
2022-12-27T09:30:03.314Z,91.64
2022-12-27T09:31:03.619Z,91.50
2022-12-27T09:32:02.338Z,91.30
2022-12-27T09:33:02.132Z,91.40
2022-12-27T09:34:02.109Z,91.40
2022-12-27T09:35:02.212Z,91.50
2022-12-27T09:36:02.143Z,91.09
2022-12-27T09:37:02.308Z,90.99
2022-12-27T09:38:02.692Z,90.67
2022-12-27T09:39:02.396Z,91.09
2022-12-27T09:40:02.327Z,90.88
2022-12-27T09:41:02.702Z,90.78
2022-12-27T09:43:15.398Z,90.78
2022-12-27T09:44:02.239Z,90.53
2022-12-27T09:45:02.072Z,90.53
2022-12-27T09:46:02.593Z,90.53
2022-12-27T09:47:02.559Z,90.43
2022-12-27T09:48:02.307Z,90.01
2022-12-27T09:49:02.628Z,89.81
2022-12-27T09:50:02.658Z,89.81
2022-12-27T09:51:02.945Z,89.91
2022-12-27T09:52:03.085Z,90.12
2022-12-27T09:53:03.190Z,89.77
2022-12-27T09:54:03.072Z,89.97
2022-12-27T09:55:05.281Z,89.67
2022-12-27T09:56:02.956Z,89.77
2022-12-27T09:57:19.613Z,89.97
2022-12-27T09:58:02.009Z,89.36
2022-12-27T09:59:02.521Z,89.11
2022-12-27T10:00:02.485Z,88.08
2022-12-27T10:01:02.684Z,88.39
2022-12-27T10:02:03.022Z,88.66
2022-12-27T10:03:02.975Z,88.66
2022-12-27T10:04:03.140Z,87.84
2022-12-27T10:05:22.970Z,87.49
2022-12-27T10:06:02.772Z,87.59
2022-12-27T10:07:03.197Z,87.28
2022-12-27T10:08:03.243Z,87.28
2022-12-27T10:09:03.160Z,86.87
2022-12-27T10:10:02.949Z,86.87
2022-12-27T10:11:03.455Z,86.05
2022-12-27T10:12:02.786Z,85.94
2022-12-27T10:13:03.113Z,86.46
2022-12-27T10:14:02.620Z,86.46
2022-12-27T10:15:02.567Z,86.35
2022-12-27T10:16:03.198Z,86.35
2022-12-27T10:17:03.339Z,86.70
2022-12-27T10:18:03.235Z,87.01
2022-12-27T10:19:03.487Z,87.22
2022-12-27T10:20:03.198Z,87.32
2022-12-27T10:21:03.224Z,87.22
2022-12-27T10:22:02.883Z,87.63
2022-12-27T10:23:06.131Z,87.42
2022-12-27T10:24:02.975Z,87.12
2022-12-27T10:25:02.872Z,87.28
2022-12-27T10:26:02.553Z,86.77
2022-12-27T10:27:03.133Z,87.18
2022-12-27T10:28:02.991Z,86.42
2022-12-27T10:29:02.715Z,86.42
2022-12-27T10:30:02.813Z,86.00
2022-12-27T10:31:03.108Z,85.46
2022-12-27T10:32:02.721Z,85.86
2022-12-27T10:33:02.421Z,85.62
2022-12-27T10:34:05.065Z,85.31
2022-12-27T10:35:03.078Z,85.21
2022-12-27T10:36:02.580Z,84.14
2022-12-27T10:37:03.212Z,84.66
2022-12-27T10:38:03.157Z,83.53
2022-12-27T10:39:03.285Z,83.59
2022-12-27T10:40:03.226Z,82.77
2022-12-27T10:41:03.281Z,82.87
2022-12-27T10:42:03.277Z,82.56
2022-12-27T10:43:03.279Z,83.28
2022-12-27T10:44:03.283Z,82.53
2022-12-27T10:45:03.451Z,82.93
2022-12-27T10:46:02.983Z,81.29
2022-12-27T10:47:02.689Z,82.22
2022-12-27T10:48:02.685Z,82.12
2022-12-27T10:50:02.648Z,81.87
2022-12-27T10:51:02.290Z,82.18
2022-12-27T10:52:03.134Z,81.36
2022-12-27T10:53:03.298Z,80.85
2022-12-27T10:54:02.954Z,81.01
2022-12-27T10:55:02.785Z,80.09
2022-12-27T10:56:03.183Z,80.91
2022-12-27T10:57:03.460Z,79.89
2022-12-27T10:58:02.918Z,80.03
2022-12-27T10:59:03.549Z,80.33
2022-12-27T11:00:03.503Z,80.09
2022-12-27T11:01:03.097Z,80.30
2022-12-27T11:02:02.977Z,80.91
2022-12-27T11:03:02.983Z,81.12
2022-12-27T11:04:02.615Z,82.00
2022-12-27T11:05:02.644Z,81.38
2022-12-27T11:06:02.640Z,79.54
2022-12-27T11:07:03.321Z,79.54
2022-12-27T11:08:02.745Z,79.91
2022-12-27T11:09:02.789Z,79.50
2022-12-27T11:10:03.127Z,79.20
2022-12-27T11:11:03.152Z,79.24
2022-12-27T11:12:02.929Z,79.75
2022-12-27T11:13:02.887Z,78.86
2022-12-27T11:14:02.295Z,79.48
2022-12-27T11:15:02.329Z,80.23
2022-12-27T11:16:02.967Z,80.13
2022-12-27T11:17:03.097Z,80.44
2022-12-27T11:18:02.635Z,81.20
2022-12-27T11:19:03.014Z,80.88
2022-12-27T11:20:03.000Z,81.40
2022-12-27T11:21:02.759Z,81.91
2022-12-27T11:22:03.392Z,81.60
2022-12-27T11:23:03.439Z,81.71
2022-12-27T11:24:02.999Z,82.12
2022-12-27T11:25:02.773Z,81.91
2022-12-27T11:26:03.217Z,82.15
2022-12-27T11:27:02.395Z,81.91
2022-12-27T11:28:02.485Z,81.85
2022-12-27T11:29:02.610Z,82.05
2022-12-27T11:30:02.875Z,81.74
2022-12-27T11:31:02.525Z,82.05
2022-12-27T11:32:02.912Z,82.36
2022-12-27T11:33:03.160Z,82.56
2022-12-27T11:34:03.064Z,81.74
2022-12-27T11:35:03.403Z,81.64
2022-12-27T11:36:03.306Z,81.95
2022-12-27T11:37:03.453Z,82.36
2022-12-27T11:38:02.898Z,82.26
2022-12-27T11:39:03.054Z,82.46
2022-12-27T11:40:02.712Z,82.73
2022-12-27T11:41:02.941Z,81.71
2022-12-27T11:42:03.095Z,82.42
2022-12-27T11:43:02.422Z,81.77
2022-12-27T11:44:02.718Z,82.28
2022-12-27T11:45:02.558Z,82.65
2022-12-27T11:46:02.561Z,80.05
2022-12-27T11:47:02.509Z,80.16
2022-12-27T11:48:03.386Z,79.82
2022-12-27T11:49:03.224Z,79.47
2022-12-27T11:50:03.441Z,78.04
2022-12-27T11:51:03.182Z,77.63
2022-12-27T11:52:03.140Z,78.24
2022-12-27T11:53:03.006Z,78.45
2022-12-27T11:54:03.076Z,77.94
2022-12-27T11:55:02.762Z,78.61
2022-12-27T11:56:02.905Z,78.92
2022-12-27T11:57:03.088Z,79.13
2022-12-27T11:58:02.959Z,77.86
2022-12-27T11:59:03.034Z,77.29
2022-12-27T12:00:02.872Z,77.39
2022-12-27T12:01:05.732Z,77.08
2022-12-27T12:02:02.848Z,77.59
2022-12-27T12:03:02.934Z,76.88
2022-12-27T12:04:02.627Z,77.49
2022-12-27T12:05:02.606Z,77.12
2022-12-27T12:06:02.636Z,78.04
2022-12-27T12:07:02.833Z,77.22
2022-12-27T12:08:02.400Z,78.08
2022-12-27T12:09:02.383Z,78.59
2022-12-27T12:10:02.138Z,78.31
2022-12-27T12:11:02.123Z,79.34
2022-12-27T12:12:01.963Z,79.13
2022-12-27T12:13:02.509Z,79.64
2022-12-27T12:14:02.304Z,79.34
2022-12-27T12:15:02.383Z,79.03
2022-12-27T12:16:02.326Z,78.72
2022-12-27T12:17:02.719Z,79.27
2022-12-27T12:18:02.246Z,79.68
2022-12-27T12:19:02.542Z,79.79
2022-12-27T12:21:01.972Z,79.68
2022-12-27T12:22:01.852Z,79.68
2022-12-27T12:23:02.196Z,79.82
2022-12-27T12:24:02.702Z,80.03
2022-12-27T12:25:02.279Z,80.54
2022-12-27T12:26:02.584Z,80.54
2022-12-27T12:27:02.457Z,79.82
2022-12-27T12:28:02.020Z,80.03
2022-12-27T12:29:01.907Z,79.93
2022-12-27T12:30:02.227Z,79.82
2022-12-27T12:31:02.413Z,80.13
2022-12-27T12:32:01.774Z,80.44
2022-12-27T12:33:02.258Z,80.60
2022-12-27T12:34:02.358Z,80.71
2022-12-27T12:35:01.909Z,80.60
2022-12-27T12:36:01.908Z,79.99
2022-12-27T12:37:02.400Z,80.19
2022-12-27T12:38:02.685Z,79.38
2022-12-27T12:39:02.554Z,79.27
2022-12-27T12:40:02.359Z,79.38
2022-12-27T12:41:02.287Z,79.07
2022-12-27T12:42:02.933Z,78.25
2022-12-27T12:43:02.420Z,79.17
2022-12-27T12:44:02.091Z,79.58
2022-12-27T12:45:02.008Z,79.58
2022-12-27T12:46:01.911Z,79.79
2022-12-27T12:47:02.080Z,79.99
2022-12-27T12:48:02.742Z,79.64
2022-12-27T12:49:02.234Z,78.83
2022-12-27T12:50:05.411Z,79.17
2022-12-27T12:51:02.381Z,79.17
2022-12-27T12:52:02.290Z,79.48
2022-12-27T12:53:02.475Z,78.76
2022-12-27T12:54:02.351Z,78.86
2022-12-27T12:55:02.419Z,79.58
2022-12-27T12:56:02.699Z,79.99